Check out our new PWSWeather beta!
PWSweather.com
Personal Weather Stations
Station Observations
BWSWX1
Teesside, BillinghamGB TS23 1DL

TeessideBillinghamGB TS23 1DL

Lat: 54.588219, Lon: -1.289528

Elevation: 39

Station Type: Davis Vantage Pro2 Plus

http://billinghamweather.uk/index.php

Latest ConditionsUpdated 12:20:02 PM GMT Thursday, Feb 27, 2020
Currently Today's Max Today's Min Today's Average
Temperature 44.3°F6.8°C 44.3°F6.8°C 35.2°F1.8°C 37.8°F3.2°C
Dew Point 32.9°F0.5°C 35.2°F1.8°C 32.0°F0.0°C 33.8°F1.0°C
Winds 6.9 mph NW11.1 kmh NW 9.2 mph -14.8 kmh - - 2.5 mph 4.0 kmh
Wind Gusts 15.0 mph24.1 kmh 16.1 mph25.9 kmh - -
Humidity 64% 92% 63% 86%
Pressure 29.49 in998.6 mb 29.49 in998.6 mb 29.38 in994.9 mb -
Hour Temp Dew Point Humidity Winds Wind Gusts Pressure Precip Precip Rate Daily Precip Total
12:20 PM 44.3°F6.8°C 32.9°F0.5°C 64% 6.9 mph NW11.1 kmh NW 15.0 mph24.1 kmh 29.49 in998.6 mb - 0.00 in0.0 mm 0.00 in0.0 mm
12:10 PM 43.8°F6.6°C 32.4°F0.2°C 64% 5.8 mph NW9.3 kmh NW 6.9 mph11.1 kmh 29.49 in998.6 mb - 0.00 in0.0 mm 0.00 in0.0 mm
12:00 PM 43.8°F6.6°C 32.0°F0.0°C 63% 6.9 mph NW11.1 kmh NW 13.8 mph22.2 kmh 29.48 in998.3 mb - 0.00 in0.0 mm 0.00 in0.0 mm
11:50 AM 43.8°F6.6°C 32.0°F0.0°C 63% 9.2 mph WNW14.8 kmh WNW 15.0 mph24.1 kmh 29.48 in998.3 mb - 0.00 in0.0 mm 0.00 in0.0 mm
11:40 AM 44.3°F6.8°C 32.5°F0.3°C 63% 8.1 mph NW13.0 kmh NW 13.8 mph22.2 kmh 29.48 in998.3 mb - 0.00 in0.0 mm 0.00 in0.0 mm
11:30 AM 44.1°F6.7°C 33.1°F0.6°C 65% 6.9 mph NW11.1 kmh NW 12.7 mph20.4 kmh 29.47 in998.0 mb - 0.00 in0.0 mm 0.00 in0.0 mm
11:20 AM 43.7°F6.5°C 33.4°F0.8°C 67% 6.9 mph WNW11.1 kmh WNW 12.7 mph20.4 kmh 29.46 in997.6 mb - 0.00 in0.0 mm 0.00 in0.0 mm
11:10 AM 43.1°F6.2°C 33.3°F0.7°C 68% 5.8 mph NW9.3 kmh NW 10.4 mph16.7 kmh 29.46 in997.6 mb - 0.00 in0.0 mm 0.00 in0.0 mm
11:00 AM 42.4°F5.8°C 32.6°F0.3°C 68% 9.2 mph NW14.8 kmh NW 12.7 mph20.4 kmh 29.45 in997.3 mb - 0.00 in0.0 mm 0.00 in0.0 mm
10:50 AM 42.3°F5.7°C 32.5°F0.3°C 68% 9.2 mph NW14.8 kmh NW 16.1 mph25.9 kmh 29.46 in997.6 mb - 0.00 in0.0 mm 0.00 in0.0 mm
10:40 AM 42.1°F5.6°C 33.0°F0.6°C 70% 9.2 mph WNW14.8 kmh WNW 11.5 mph18.5 kmh 29.45 in997.3 mb - 0.00 in0.0 mm 0.00 in0.0 mm
10:30 AM 42.0°F5.6°C 33.6°F0.9°C 72% 4.6 mph NW7.4 kmh NW 12.7 mph20.4 kmh 29.44 in997.0 mb - 0.00 in0.0 mm 0.00 in0.0 mm
10:20 AM 41.6°F5.3°C 33.9°F1.1°C 74% 5.8 mph NW9.3 kmh NW 12.7 mph20.4 kmh 29.44 in997.0 mb - 0.00 in0.0 mm 0.00 in0.0 mm
10:10 AM 41.2°F5.1°C 33.9°F1.1°C 75% 6.9 mph WNW11.1 kmh WNW 11.5 mph18.5 kmh 29.44 in997.0 mb - 0.00 in0.0 mm 0.00 in0.0 mm
10:00 AM 40.8°F4.9°C 34.2°F1.2°C 77% 4.6 mph WNW7.4 kmh WNW 13.8 mph22.2 kmh 29.44 in997.0 mb - 0.00 in0.0 mm 0.00 in0.0 mm
09:50 AM 40.4°F4.7°C 34.7°F1.5°C 80% 6.9 mph NW11.1 kmh NW 8.1 mph13.0 kmh 29.44 in997.0 mb - 0.00 in0.0 mm 0.00 in0.0 mm
09:40 AM 39.8°F4.3°C 34.8°F1.6°C 82% 6.9 mph W11.1 kmh W 11.5 mph18.5 kmh 29.43 in996.6 mb - 0.00 in0.0 mm 0.00 in0.0 mm
09:30 AM 39.3°F4.1°C 34.9°F1.6°C 84% 5.8 mph NW9.3 kmh NW 8.1 mph13.0 kmh 29.43 in996.6 mb - 0.00 in0.0 mm 0.00 in0.0 mm
09:20 AM 38.6°F3.7°C 35.1°F1.7°C 87% 6.9 mph WSW11.1 kmh WSW 10.4 mph16.7 kmh 29.43 in996.6 mb - 0.00 in0.0 mm 0.00 in0.0 mm
09:10 AM 38.2°F3.4°C 35.2°F1.8°C 89% 1.2 mph NW1.9 kmh NW 6.9 mph11.1 kmh 29.43 in996.6 mb - 0.00 in0.0 mm 0.00 in0.0 mm
09:00 AM 37.5°F3.1°C 35.1°F1.7°C 91% 2.3 mph WNW3.7 kmh WNW 4.6 mph7.4 kmh 29.42 in996.3 mb - 0.00 in0.0 mm 0.00 in0.0 mm
08:50 AM 37.0°F2.8°C 34.9°F1.6°C 92% 1.2 mph NW1.9 kmh NW 4.6 mph7.4 kmh 29.42 in996.3 mb - 0.00 in0.0 mm 0.00 in0.0 mm
08:40 AM 36.4°F2.4°C 34.3°F1.3°C 92% Calm Calm 3.5 mph5.6 kmh 29.42 in996.3 mb - 0.00 in0.0 mm 0.00 in0.0 mm
08:30 AM 35.9°F2.2°C 33.8°F1.0°C 92% 1.2 mph NW1.9 kmh NW 5.8 mph9.3 kmh 29.42 in996.3 mb - 0.00 in0.0 mm 0.00 in0.0 mm
08:20 AM 35.4°F1.9°C 33.3°F0.7°C 92% Calm Calm -- 29.42 in996.3 mb - 0.00 in0.0 mm 0.00 in0.0 mm
08:10 AM 35.2°F1.8°C 33.1°F0.6°C 92% Calm Calm -- 29.42 in996.3 mb - 0.00 in0.0 mm 0.00 in0.0 mm
08:00 AM 35.2°F1.8°C 33.1°F0.6°C 92% Calm Calm -- 29.41 in995.9 mb - 0.00 in0.0 mm 0.00 in0.0 mm
07:50 AM 35.4°F1.9°C 33.3°F0.7°C 92% 1.2 mph SW1.9 kmh SW 2.3 mph3.7 kmh 29.41 in995.9 mb - 0.00 in0.0 mm 0.00 in0.0 mm
07:40 AM 35.5°F1.9°C 33.4°F0.8°C 92% Calm Calm -- 29.41 in995.9 mb - 0.00 in0.0 mm 0.00 in0.0 mm
07:30 AM 35.4°F1.9°C 33.3°F0.7°C 92% Calm Calm -- 29.41 in995.9 mb - 0.00 in0.0 mm 0.00 in0.0 mm
07:20 AM 35.5°F1.9°C 33.4°F0.8°C 92% Calm Calm -- 29.40 in995.6 mb - 0.00 in0.0 mm 0.00 in0.0 mm
07:10 AM 35.7°F2.1°C 33.6°F0.9°C 92% Calm Calm -- 29.40 in995.6 mb - 0.00 in0.0 mm 0.00 in0.0 mm
07:00 AM 35.9°F2.2°C 33.5°F0.8°C 91% Calm Calm -- 29.39 in995.3 mb - 0.00 in0.0 mm 0.00 in0.0 mm
06:50 AM 36.0°F2.2°C 33.6°F0.9°C 91% 2.3 mph WSW3.7 kmh WSW 3.5 mph5.6 kmh 29.39 in995.3 mb - 0.00 in0.0 mm 0.00 in0.0 mm
06:40 AM 36.1°F2.3°C 33.7°F0.9°C 91% 1.2 mph WSW1.9 kmh WSW 3.5 mph5.6 kmh 29.39 in995.3 mb - 0.00 in0.0 mm 0.00 in0.0 mm
06:30 AM 36.2°F2.3°C 33.8°F1.0°C 91% 1.2 mph SW1.9 kmh SW 1.2 mph1.9 kmh 29.39 in995.3 mb - 0.00 in0.0 mm 0.00 in0.0 mm
06:20 AM 36.3°F2.4°C 33.9°F1.1°C 91% Calm Calm 3.5 mph5.6 kmh 29.39 in995.3 mb - 0.00 in0.0 mm 0.00 in0.0 mm
06:10 AM 36.3°F2.4°C 33.9°F1.1°C 91% Calm Calm 1.2 mph1.9 kmh 29.39 in995.3 mb - 0.00 in0.0 mm 0.00 in0.0 mm
06:00 AM 36.4°F2.4°C 34.0°F1.1°C 91% Calm Calm 1.2 mph1.9 kmh 29.38 in994.9 mb - 0.00 in0.0 mm 0.00 in0.0 mm
05:50 AM 36.5°F2.5°C 34.1°F1.2°C 91% 1.2 mph SW1.9 kmh SW 1.2 mph1.9 kmh 29.39 in995.3 mb - 0.00 in0.0 mm 0.00 in0.0 mm
05:40 AM 36.5°F2.5°C 34.1°F1.2°C 91% Calm Calm -- 29.39 in995.3 mb - 0.00 in0.0 mm 0.00 in0.0 mm
05:30 AM 36.5°F2.5°C 34.1°F1.2°C 91% Calm Calm -- 29.39 in995.3 mb - 0.00 in0.0 mm 0.00 in0.0 mm
05:20 AM 36.6°F2.6°C 34.2°F1.2°C 91% Calm Calm -- 29.39 in995.3 mb - 0.00 in0.0 mm 0.00 in0.0 mm
05:10 AM 36.6°F2.6°C 34.2°F1.2°C 91% Calm Calm -- 29.39 in995.3 mb - 0.00 in0.0 mm 0.00 in0.0 mm
05:00 AM 36.7°F2.6°C 34.3°F1.3°C 91% Calm Calm -- 29.39 in995.3 mb - 0.00 in0.0 mm 0.00 in0.0 mm
04:50 AM 36.8°F2.7°C 34.4°F1.3°C 91% Calm Calm -- 29.39 in995.3 mb - 0.00 in0.0 mm 0.00 in0.0 mm
04:40 AM 36.9°F2.7°C 34.5°F1.4°C 91% Calm Calm -- 29.39 in995.3 mb - 0.00 in0.0 mm 0.00 in0.0 mm
04:30 AM 36.9°F2.7°C 34.5°F1.4°C 91% 1.2 mph WSW1.9 kmh WSW 3.5 mph5.6 kmh 29.39 in995.3 mb - 0.00 in0.0 mm 0.00 in0.0 mm
04:20 AM 36.8°F2.7°C 34.4°F1.3°C 91% 2.3 mph SW3.7 kmh SW 4.6 mph7.4 kmh 29.39 in995.3 mb - 0.00 in0.0 mm 0.00 in0.0 mm
04:10 AM 36.8°F2.7°C 34.4°F1.3°C 91% 1.2 mph SSW1.9 kmh SSW 3.5 mph5.6 kmh 29.39 in995.3 mb - 0.00 in0.0 mm 0.00 in0.0 mm
04:00 AM 36.7°F2.6°C 34.6°F1.4°C 92% Calm Calm 1.2 mph1.9 kmh 29.40 in995.6 mb - 0.00 in0.0 mm 0.00 in0.0 mm
03:50 AM 36.7°F2.6°C 34.3°F1.3°C 91% Calm Calm 3.5 mph5.6 kmh 29.40 in995.6 mb - 0.00 in0.0 mm 0.00 in0.0 mm
03:40 AM 36.6°F2.6°C 34.5°F1.4°C 92% 1.2 mph ESE1.9 kmh ESE 4.6 mph7.4 kmh 29.40 in995.6 mb - 0.00 in0.0 mm 0.00 in0.0 mm
03:30 AM 36.5°F2.5°C 34.4°F1.3°C 92% 1.2 mph SW1.9 kmh SW 4.6 mph7.4 kmh 29.41 in995.9 mb - 0.00 in0.0 mm 0.00 in0.0 mm
03:20 AM 36.4°F2.4°C 34.3°F1.3°C 92% 1.2 mph WSW1.9 kmh WSW -- 29.41 in995.9 mb - 0.00 in0.0 mm 0.00 in0.0 mm
03:10 AM 36.2°F2.3°C 34.1°F1.2°C 92% 3.5 mph S5.6 kmh S 5.8 mph9.3 kmh 29.41 in995.9 mb - 0.00 in0.0 mm 0.00 in0.0 mm
03:00 AM 36.1°F2.3°C 33.7°F0.9°C 91% 1.2 mph W1.9 kmh W 3.5 mph5.6 kmh 29.41 in995.9 mb - 0.00 in0.0 mm 0.00 in0.0 mm
02:50 AM 36.1°F2.3°C 34.0°F1.1°C 92% Calm Calm -- 29.42 in996.3 mb - 0.00 in0.0 mm 0.00 in0.0 mm
02:40 AM 36.2°F2.3°C 33.8°F1.0°C 91% 3.5 mph SSW5.6 kmh SSW 6.9 mph11.1 kmh 29.42 in996.3 mb - 0.00 in0.0 mm 0.00 in0.0 mm
02:30 AM 36.2°F2.3°C 33.8°F1.0°C 91% 1.2 mph S1.9 kmh S 4.6 mph7.4 kmh 29.43 in996.6 mb - 0.00 in0.0 mm 0.00 in0.0 mm
02:20 AM 36.4°F2.4°C 34.0°F1.1°C 91% Calm Calm 2.3 mph3.7 kmh 29.43 in996.6 mb - 0.00 in0.0 mm 0.00 in0.0 mm
02:10 AM 36.6°F2.6°C 34.2°F1.2°C 91% Calm Calm 6.9 mph11.1 kmh 29.43 in996.6 mb - 0.00 in0.0 mm 0.00 in0.0 mm
02:00 AM 36.7°F2.6°C 34.3°F1.3°C 91% 1.2 mph SSW1.9 kmh SSW 2.3 mph3.7 kmh 29.44 in997.0 mb - 0.00 in0.0 mm 0.00 in0.0 mm
01:50 AM 36.7°F2.6°C 34.3°F1.3°C 91% 2.3 mph SE3.7 kmh SE 4.6 mph7.4 kmh 29.44 in997.0 mb - 0.00 in0.0 mm 0.00 in0.0 mm
01:40 AM 36.7°F2.6°C 34.3°F1.3°C 91% 2.3 mph SW3.7 kmh SW 5.8 mph9.3 kmh 29.45 in997.3 mb - 0.00 in0.0 mm 0.00 in0.0 mm
01:30 AM 36.6°F2.6°C 33.9°F1.1°C 90% 2.3 mph SE3.7 kmh SE 4.6 mph7.4 kmh 29.45 in997.3 mb - 0.00 in0.0 mm 0.00 in0.0 mm
01:20 AM 36.4°F2.4°C 33.7°F0.9°C 90% 2.3 mph SW3.7 kmh SW 2.3 mph3.7 kmh 29.46 in997.6 mb - 0.00 in0.0 mm 0.00 in0.0 mm
01:10 AM 36.0°F2.2°C 33.4°F0.8°C 90% 2.3 mph SSW3.7 kmh SSW 5.8 mph9.3 kmh 29.46 in997.6 mb - 0.00 in0.0 mm 0.00 in0.0 mm
01:00 AM 35.9°F2.2°C 33.3°F0.7°C 90% 1.2 mph S1.9 kmh S 6.9 mph11.1 kmh 29.47 in998.0 mb - 0.00 in0.0 mm 0.00 in0.0 mm
12:50 AM 36.0°F2.2°C 33.3°F0.7°C 90% 1.2 mph SSW1.9 kmh SSW 3.5 mph5.6 kmh 29.47 in998.0 mb - 0.00 in0.0 mm 0.00 in0.0 mm
12:40 AM 36.1°F2.3°C 33.2°F0.7°C 89% Calm Calm 6.9 mph11.1 kmh 29.47 in998.0 mb - 0.00 in0.0 mm 0.00 in0.0 mm
12:30 AM 36.4°F2.4°C 33.5°F0.8°C 89% 2.3 mph S3.7 kmh S 3.5 mph5.6 kmh 29.48 in998.3 mb - 0.00 in0.0 mm 0.00 in0.0 mm
12:20 AM 36.6°F2.6°C 33.7°F0.9°C 89% 3.5 mph SSW5.6 kmh SSW 6.9 mph11.1 kmh 29.48 in998.3 mb - 0.00 in0.0 mm 0.00 in0.0 mm
12:10 AM 36.8°F2.7°C 33.9°F1.1°C 89% 2.3 mph SW3.7 kmh SW 6.9 mph11.1 kmh 29.48 in998.3 mb - 0.00 in0.0 mm 0.00 in0.0 mm
12:00 AM 36.9°F2.7°C 33.7°F0.9°C 88% 2.3 mph S3.7 kmh S 5.8 mph9.3 kmh 29.49 in998.6 mb - 0.00 in0.0 mm 0.00 in0.0 mm